Terminal Aerodrome Forecast
Issued by NWS

Home | Current Version | Previous Version | Text Only | Print | Product List | Glossary On
Versions: 1 2 3 4 5 6 7 8 9 10 11 12 13 14 15 16 17 18 19
000
FTUS43 KDLH 171100
TAFHIB
TAF
KHIB 171136Z 1712/1812 35012KT P6SM VCSH BKN060 OVC070
     FM171400 34014G20KT P6SM VCSH SCT025 OVC040
     FM171800 34014G24KT P6SM VCSH BKN035
     FM180000 34012KT P6SM BKN025
     FM180700 35006KT P6SM SCT050=

USA.gov is the U.S. government's official web portal to all federal, state and local government web resources and services.